Time;durP1;ratioP1;P1;durP2;ratioP2;P2;SDS_P1;SDS_P2;PMS_P1;PMS_P2;Temp;Humidity;BMP_temperature;BMP_pressure;BME280_temperature;BME280_humidity;BME280_pressure;Samples;Min_cycle;Max_cycle;Signal;HPM_P1;HPM_P2
2023/08/08 00:01:04;;;;;;;8.07;3.42;;;410.20;2355.20;;;;;;4990878;28;20019;-64
2023/08/08 00:03:29;;;;;;;4.88;2.97;;;410.20;2355.20;;;;;;4990209;28;20428;-66
2023/08/08 00:05:55;;;;;;;5.72;3.47;;;410.20;2355.20;;;;;;4990592;28;20109;-64
2023/08/08 00:08:21;;;;;;;5.10;3.85;;;410.20;2355.20;;;;;;4990139;28;20039;-65
2023/08/08 00:10:47;;;;;;;3.90;3.25;;;410.20;2355.20;;;;;;4990249;28;20042;-65
2023/08/08 00:13:12;;;;;;;4.10;3.28;;;410.10;2355.20;;;;;;4990416;28;20378;-65
2023/08/08 00:15:38;;;;;;;4.70;3.40;;;410.10;2355.20;;;;;;4990341;28;20023;-63
2023/08/08 00:18:04;;;;;;;4.28;3.45;;;410.10;2355.20;;;;;;4990601;28;20445;-65
2023/08/08 00:20:30;;;;;;;7.95;4.13;;;410.20;2355.20;;;;;;4990207;28;20023;-65
2023/08/08 00:22:56;;;;;;;4.13;3.50;;;410.20;2355.20;;;;;;4990344;28;20030;-65
2023/08/08 00:25:21;;;;;;;5.60;3.78;;;410.20;2355.20;;;;;;4989964;28;20069;-65
2023/08/08 00:27:50;;;;;;;4.20;3.22;;;410.20;2355.20;;;;;;4990220;28;20120;-64
2023/08/08 00:30:15;;;;;;;4.82;3.15;;;410.20;2355.20;;;;;;4990117;28;20015;-64
2023/08/08 00:32:42;;;;;;;4.25;3.30;;;410.30;2355.20;;;;;;4989053;28;20381;-65
2023/08/08 00:35:08;;;;;;;6.40;3.13;;;410.20;2355.20;;;;;;4989823;28;20442;-64
2023/08/08 00:37:34;;;;;;;6.82;3.17;;;410.30;2355.20;;;;;;4990179;28;20057;-62
2023/08/08 00:40:00;;;;;;;5.20;2.95;;;410.30;2355.20;;;;;;4989744;28;20046;-64
2023/08/08 00:42:25;;;;;;;5.65;2.80;;;410.30;2355.20;;;;;;4989809;28;20037;-64
2023/08/08 00:44:51;;;;;;;5.53;3.13;;;410.30;2355.20;;;;;;4989916;28;20029;-65
2023/08/08 00:47:17;;;;;;;4.95;2.60;;;410.30;2355.20;;;;;;4989670;28;20030;-65
2023/08/08 00:49:46;;;;;;;3.67;2.70;;;410.30;2355.20;;;;;;4990271;28;20043;-64
2023/08/08 00:52:12;;;;;;;4.45;2.67;;;410.30;2355.20;;;;;;4989922;28;20508;-64
2023/08/08 00:54:38;;;;;;;4.30;2.60;;;410.40;2355.20;;;;;;4972423;28;20045;-64
2023/08/08 00:57:04;;;;;;;4.28;2.40;;;410.40;2355.20;;;;;;4989619;28;20023;-64
2023/08/08 00:59:30;;;;;;;3.95;2.50;;;410.40;2355.20;;;;;;4989660;28;20022;-64
2023/08/08 01:01:57;;;;;;;5.50;2.90;;;410.50;2355.20;;;;;;4989870;28;20038;-64
2023/08/08 01:04:25;;;;;;;3.70;2.58;;;410.40;2355.20;;;;;;4989759;28;20018;-64
2023/08/08 01:07:02;;;;;;;5.63;3.13;;;410.40;2355.20;;;;;;4989503;28;20098;-64
2023/08/08 01:09:40;;;;;;;6.05;3.78;;;410.40;2355.20;;;;;;4989380;28;20101;-64
2023/08/08 01:12:10;;;;;;;5.28;3.47;;;410.30;2355.20;;;;;;4989709;28;20486;-64
2023/08/08 01:14:36;;;;;;;6.28;3.95;;;410.30;2355.20;;;;;;4989865;28;20465;-65
2023/08/08 01:17:03;;;;;;;5.38;4.03;;;410.30;2355.20;;;;;;4989405;28;20026;-63
2023/08/08 01:19:30;;;;;;;5.75;3.15;;;410.30;2355.20;;;;;;4989484;28;20026;-64
2023/08/08 01:22:02;;;;;;;6.28;3.25;;;410.30;2355.20;;;;;;4989854;28;20125;-63
2023/08/08 01:24:30;;;;;;;5.88;2.90;;;410.30;2355.20;;;;;;4989367;28;20022;-65
2023/08/08 01:26:59;;;;;;;5.68;3.50;;;410.40;2355.20;;;;;;4989298;28;20095;-64
2023/08/08 01:29:26;;;;;;;4.90;3.67;;;410.40;2355.20;;;;;;4989552;28;20030;-63
2023/08/08 01:31:52;;;;;;;3.65;2.78;;;410.40;2355.20;;;;;;4989450;28;20023;-63
2023/08/08 01:34:18;;;;;;;4.03;2.58;;;410.40;2355.20;;;;;;4989333;28;20033;-64
2023/08/08 01:37:09;;;;;;;3.67;2.67;;;410.40;2355.20;;;;;;4989354;28;20030;-64
2023/08/08 01:39:38;;;;;;;3.72;2.63;;;410.40;2355.20;;;;;;4948221;29;20521;-65
2023/08/08 01:42:06;;;;;;;9.95;3.80;;;410.50;2355.20;;;;;;4948677;28;20055;-65
2023/08/08 01:44:32;;;;;;;4.95;3.78;;;410.30;2355.20;;;;;;4951792;29;20031;-64
2023/08/08 01:46:58;;;;;;;6.25;3.70;;;410.20;2355.20;;;;;;4960341;28;20571;-64
2023/08/08 01:49:24;;;;;;;4.68;3.30;;;410.10;2355.20;;;;;;4956370;28;20035;-64
2023/08/08 01:51:50;;;;;;;7.07;3.47;;;410.20;2355.20;;;;;;4952000;29;20119;-63
2023/08/08 01:54:16;;;;;;;5.18;3.85;;;410.10;2355.20;;;;;;4952082;29;20541;-64
2023/08/08 01:56:42;;;;;;;5.68;3.45;;;410.00;2355.20;;;;;;4951851;29;20077;-64
2023/08/08 01:59:07;;;;;;;6.82;3.53;;;410.00;2355.20;;;;;;4951917;29;20453;-64
2023/08/08 02:01:33;;;;;;;9.00;3.85;;;410.00;2355.20;;;;;;4952073;28;20027;-64
2023/08/08 02:03:59;;;;;;;4.78;3.80;;;410.10;2355.20;;;;;;4951707;29;20677;-64
2023/08/08 02:06:24;;;;;;;7.53;3.92;;;410.10;2355.20;;;;;;4951844;28;20495;-64
2023/08/08 02:08:50;;;;;;;5.60;3.55;;;410.10;2355.20;;;;;;4951604;29;20087;-64
2023/08/08 02:11:16;;;;;;;7.97;4.05;;;410.10;2355.20;;;;;;4983893;28;20117;-63
2023/08/08 02:13:41;;;;;;;7.53;3.40;;;410.10;2355.20;;;;;;4992789;28;20428;-64
2023/08/08 02:16:07;;;;;;;5.43;3.83;;;410.20;2355.20;;;;;;4992577;28;20026;-65
2023/08/08 02:18:33;;;;;;;8.00;3.85;;;410.10;2355.20;;;;;;4992663;28;20137;-64
2023/08/08 02:20:58;;;;;;;7.68;3.78;;;410.10;2355.20;;;;;;4992376;28;20069;-64
2023/08/08 02:23:26;;;;;;;7.20;4.40;;;410.10;2355.20;;;;;;4992257;28;20073;-63
2023/08/08 02:25:51;;;;;;;9.30;3.80;;;410.10;2355.20;;;;;;4992261;28;20046;-65
2023/08/08 02:28:17;;;;;;;5.85;3.95;;;410.00;2355.20;;;;;;4992380;28;20077;-66
2023/08/08 02:30:43;;;;;;;4.40;3.15;;;410.00;2355.20;;;;;;4992376;28;20026;-64
2023/08/08 02:33:09;;;;;;;4.10;2.67;;;410.00;2355.20;;;;;;4992184;28;20096;-65
2023/08/08 02:35:37;;;;;;;3.40;2.70;;;409.90;2355.20;;;;;;4992335;28;20027;-67
2023/08/08 02:38:03;;;;;;;3.88;2.63;;;410.00;2355.20;;;;;;4992503;28;20106;-64
2023/08/08 02:40:29;;;;;;;6.22;2.50;;;410.00;2355.20;;;;;;4992118;28;20061;-64
2023/08/08 02:42:54;;;;;;;6.80;2.53;;;410.00;2355.20;;;;;;4991907;28;20784;-64
2023/08/08 02:45:20;;;;;;;4.35;2.60;;;410.00;2355.20;;;;;;4992173;28;20014;-64
2023/08/08 02:47:46;;;;;;;2.78;2.13;;;410.00;2355.20;;;;;;4991631;28;20145;-63
2023/08/08 02:50:11;;;;;;;4.13;2.10;;;410.10;2355.20;;;;;;4992099;28;20026;-64
2023/08/08 02:52:37;;;;;;;4.57;1.80;;;410.00;2355.20;;;;;;4992204;28;20495;-65
2023/08/08 02:55:03;;;;;;;4.35;1.50;;;410.00;2355.20;;;;;;4991476;28;20028;-64
2023/08/08 02:57:29;;;;;;;3.67;2.03;;;409.90;2355.20;;;;;;4991795;28;20023;-65
2023/08/08 02:59:55;;;;;;;4.50;1.65;;;409.90;2355.20;;;;;;4992167;28;20096;-64
2023/08/08 03:02:20;;;;;;;4.70;2.10;;;409.90;2355.20;;;;;;4991514;28;20109;-63
2023/08/08 03:04:46;;;;;;;4.68;1.63;;;409.90;2355.20;;;;;;4991985;28;20097;-64
2023/08/08 03:07:12;;;;;;;10.40;2.13;;;410.00;2355.20;;;;;;4991647;28;20042;-62
2023/08/08 03:09:37;;;;;;;3.50;2.13;;;409.90;2355.20;;;;;;4991580;28;20030;-65
2023/08/08 03:12:03;;;;;;;2.75;1.50;;;409.90;2355.20;;;;;;4991981;28;20030;-63
2023/08/08 03:14:29;;;;;;;3.67;1.98;;;409.90;2355.20;;;;;;4991873;28;20026;-64
2023/08/08 03:16:55;;;;;;;2.83;1.60;;;409.90;2355.20;;;;;;4991531;28;20045;-63
2023/08/08 03:19:22;;;;;;;6.90;1.30;;;409.90;2355.20;;;;;;4991451;28;20034;-63
2023/08/08 03:21:47;;;;;;;2.30;1.48;;;409.90;2355.20;;;;;;4991505;28;20033;-65
2023/08/08 03:24:13;;;;;;;4.07;1.42;;;410.00;2355.20;;;;;;4991517;28;20023;-64
2023/08/08 03:26:39;;;;;;;2.28;1.40;;;410.00;2355.20;;;;;;4991112;28;20026;-64
2023/08/08 03:29:04;;;;;;;5.30;2.40;;;410.00;2355.20;;;;;;4991775;28;20484;-64
2023/08/08 03:31:30;;;;;;;3.30;1.60;;;410.00;2355.20;;;;;;4991162;28;20417;-63
2023/08/08 03:33:56;;;;;;;3.78;1.58;;;410.00;2355.20;;;;;;4991160;28;20428;-64
2023/08/08 03:36:21;;;;;;;4.25;1.80;;;410.00;2355.20;;;;;;4991067;28;20436;-64
2023/08/08 03:38:47;;;;;;;4.30;1.58;;;409.90;2355.20;;;;;;4991019;28;20034;-63
2023/08/08 03:41:13;;;;;;;3.33;1.60;;;409.90;2355.20;;;;;;4991111;28;20099;-64
2023/08/08 03:43:39;;;;;;;4.30;1.90;;;409.90;2355.20;;;;;;4991154;28;20034;-63
2023/08/08 03:46:05;;;;;;;3.63;1.45;;;409.90;2355.20;;;;;;4991262;28;20026;-64
2023/08/08 03:48:32;;;;;;;3.38;1.90;;;409.90;2355.20;;;;;;4990888;28;20037;-63
2023/08/08 03:50:57;;;;;;;5.15;1.90;;;409.90;2355.20;;;;;;4990762;28;20061;-64
2023/08/08 03:53:23;;;;;;;2.75;1.75;;;409.90;2355.20;;;;;;4990883;28;20018;-63
2023/08/08 03:55:49;;;;;;;1.50;1.05;;;409.90;2355.20;;;;;;4990662;28;20041;-63
2023/08/08 03:58:14;;;;;;;3.70;1.50;;;409.90;2355.20;;;;;;4991102;28;20027;-63
2023/08/08 04:00:45;;;;;;;3.55;1.60;;;410.00;2355.20;;;;;;4990675;28;20081;-65
2023/08/08 04:03:14;;;;;;;2.88;1.85;;;410.00;2355.20;;;;;;4990733;28;20031;-64
2023/08/08 04:05:40;;;;;;;5.55;1.73;;;410.10;2355.20;;;;;;4990542;28;20018;-64
2023/08/08 04:08:06;;;;;;;3.20;1.90;;;410.20;2355.20;;;;;;4990568;28;20037;-63
2023/08/08 04:10:31;;;;;;;4.50;1.90;;;410.20;2355.20;;;;;;4990226;28;20040;-64
2023/08/08 04:12:57;;;;;;;4.25;1.65;;;410.40;2355.20;;;;;;4990771;28;20499;-63
2023/08/08 04:15:23;;;;;;;3.92;1.80;;;410.50;2355.20;;;;;;4990505;28;20022;-64
2023/08/08 04:17:48;;;;;;;5.55;1.63;;;410.50;2355.20;;;;;;4990365;28;20480;-64
2023/08/08 04:20:14;;;;;;;2.88;1.48;;;435.20;2355.20;;;;;;4990443;28;20090;-63
2023/08/08 04:22:40;;;;;;;4.40;1.70;;;435.20;2355.20;;;;;;4990331;28;20095;-64
2023/08/08 04:25:06;;;;;;;2.33;1.45;;;435.30;2355.20;;;;;;4989991;28;20054;-63
2023/08/08 04:27:32;;;;;;;4.90;1.50;;;435.30;2355.20;;;;;;4990224;28;20034;-63
2023/08/08 04:29:58;;;;;;;2.50;1.50;;;435.40;2355.20;;;;;;4990124;28;20037;-65
2023/08/08 04:32:23;;;;;;;2.92;1.95;;;435.50;2355.20;;;;;;4990130;28;20045;-63
2023/08/08 04:34:49;;;;;;;2.53;1.67;;;435.50;2355.20;;;;;;4989836;28;20507;-64
2023/08/08 04:37:15;;;;;;;5.55;2.03;;;435.60;2355.20;;;;;;4990145;28;20157;-63
2023/08/08 04:39:40;;;;;;;3.80;1.75;;;435.60;2355.20;;;;;;4989585;28;20030;-64
2023/08/08 04:42:06;;;;;;;2.83;1.77;;;435.60;2355.20;;;;;;4990141;28;20113;-64
2023/08/08 04:44:32;;;;;;;2.83;1.50;;;435.60;2355.20;;;;;;4989930;28;20445;-64
2023/08/08 04:46:57;;;;;;;2.28;1.55;;;435.70;2355.20;;;;;;4989997;28;20033;-64
2023/08/08 04:49:23;;;;;;;3.05;1.40;;;435.60;2355.20;;;;;;4989903;28;20044;-64
2023/08/08 04:51:49;;;;;;;3.65;1.80;;;435.60;2355.20;;;;;;4989652;28;20032;-64
2023/08/08 04:54:14;;;;;;;3.97;1.90;;;435.60;2355.20;;;;;;4986783;28;20380;-64
2023/08/08 04:56:40;;;;;;;3.00;1.67;;;435.70;2355.20;;;;;;4970205;28;20026;-64
2023/08/08 04:59:06;;;;;;;2.53;1.38;;;435.90;2355.20;;;;;;4970599;28;20030;-64
2023/08/08 05:01:31;;;;;;;4.50;1.85;;;435.90;2355.20;;;;;;4970133;28;20473;-62
2023/08/08 05:03:57;;;;;;;2.72;1.80;;;436.00;2355.20;;;;;;4970278;28;20049;-63
2023/08/08 05:06:23;;;;;;;3.15;1.85;;;436.00;2355.20;;;;;;4970182;28;20049;-64
2023/08/08 05:08:51;;;;;;;3.17;1.65;;;436.10;2355.20;;;;;;4969983;28;20039;-64
2023/08/08 05:11:16;;;;;;;4.78;1.67;;;461.10;2380.80;;;;;;4969810;28;20046;-63
2023/08/08 05:13:43;;;;;;;3.60;1.73;;;461.50;2380.80;;;;;;4970019;28;20030;-64
2023/08/08 05:16:08;;;;;;;6.00;2.22;;;461.60;2380.80;;;;;;4970110;28;20019;-61
2023/08/08 05:18:34;;;;;;;4.28;1.85;;;461.70;2380.80;;;;;;4989936;28;20034;-64
2023/08/08 05:21:00;;;;;;;3.00;1.90;;;486.50;2380.80;;;;;;4993519;28;20605;-63
2023/08/08 05:23:25;;;;;;;2.33;1.60;;;486.70;2380.80;;;;;;4993697;28;20037;-63
2023/08/08 05:25:51;;;;;;;4.70;2.10;;;487.10;2380.80;;;;;;4993054;28;20019;-63
2023/08/08 05:28:17;;;;;;;2.83;1.73;;;537.70;2406.40;;;;;;4988870;28;20039;-62
2023/08/08 05:30:42;;;;;;;4.85;2.15;;;537.80;2406.40;;;;;;4973760;28;20035;-63
2023/08/08 05:33:08;;;;;;;2.90;2.00;;;538.50;2406.40;;;;;;4988039;28;20034;-63
2023/08/08 05:35:34;;;;;;;3.47;2.03;;;691.60;2022.40;;;;;;4982068;28;20106;-64
2023/08/08 05:37:59;;;;;;;3.25;2.03;;;768.20;1740.80;;;;;;4978374;28;20368;-63
2023/08/08 05:40:25;;;;;;;6.70;2.35;;;794.00;1638.40;;;;;;4973793;28;20528;-63
2023/08/08 05:42:51;;;;;;;4.38;2.53;;;819.20;1587.20;;;;;;4988931;28;20034;-64
2023/08/08 05:45:17;;;;;;;2.22;1.70;;;870.50;1459.20;;;;;;4993247;28;20097;-65
2023/08/08 05:47:42;;;;;;;6.05;2.50;;;870.50;1408.00;;;;;;4978008;28;20081;-65
2023/08/08 05:50:10;;;;;;;7.82;2.58;;;870.80;1408.00;;;;;;4984966;28;20057;-65
2023/08/08 05:52:35;;;;;;;2.70;2.03;;;921.80;1331.20;;;;;;4983273;28;20033;-66
2023/08/08 05:55:01;;;;;;;2.63;2.22;;;870.60;1408.00;;;;;;4988013;28;20030;-66
2023/08/08 05:57:27;;;;;;;6.22;3.47;;;819.60;1484.80;;;;;;4948209;28;20700;-64
2023/08/08 05:59:52;;;;;;;2.85;1.80;;;921.80;1331.20;;;;;;4990953;28;20042;-65
2023/08/08 06:02:18;;;;;;;4.80;2.10;;;794.00;1484.80;;;;;;4974954;28;20072;-66
2023/08/08 06:04:45;;;;;;;2.90;1.67;;;717.70;1612.80;;;;;;4993258;28;20051;-65
2023/08/08 06:07:10;;;;;;;2.42;1.45;;;691.30;1715.20;;;;;;4967122;28;20038;-64
2023/08/08 06:09:40;;;;;;;3.55;2.10;;;640.70;1766.40;;;;;;4987034;28;20030;-65
2023/08/08 06:12:06;;;;;;;2.15;1.60;;;614.90;1843.20;;;;;;4992383;28;20042;-65
2023/08/08 06:14:32;;;;;;;4.40;1.70;;;614.50;1894.40;;;;;;4993084;28;20509;-64
2023/08/08 06:16:58;;;;;;;1.95;1.52;;;589.50;1945.60;;;;;;4974734;28;20093;-65
2023/08/08 06:19:23;;;;;;;4.03;2.08;;;588.90;1971.20;;;;;;4992853;28;20023;-63
2023/08/08 06:21:50;;;;;;;3.75;1.65;;;563.90;1996.80;;;;;;4992437;28;20556;-64
2023/08/08 06:24:15;;;;;;;1.75;1.10;;;563.60;2048.00;;;;;;4992804;28;20022;-64
2023/08/08 06:26:41;;;;;;;2.28;1.33;;;563.50;2022.40;;;;;;4992216;28;20026;-64
2023/08/08 06:29:07;;;;;;;2.90;1.70;;;563.60;2073.60;;;;;;4991436;28;20046;-65
2023/08/08 06:31:32;;;;;;;6.00;1.65;;;563.30;2124.80;;;;;;4991873;28;20113;-64
2023/08/08 06:33:58;;;;;;;2.42;1.42;;;563.40;2099.20;;;;;;4992445;28;20026;-64
2023/08/08 06:36:24;;;;;;;2.92;1.92;;;563.40;2048.00;;;;;;4992596;28;20134;-63
2023/08/08 06:38:49;;;;;;;1.70;1.38;;;563.50;2048.00;;;;;;4992371;28;20038;-63
2023/08/08 06:41:15;;;;;;;4.70;1.80;;;563.60;2073.60;;;;;;4992126;28;20491;-64
2023/08/08 06:43:41;;;;;;;3.38;1.50;;;563.50;2099.20;;;;;;4992150;28;20053;-64
2023/08/08 06:46:06;;;;;;;1.75;1.30;;;563.70;2048.00;;;;;;4992281;28;20484;-64
2023/08/08 06:48:32;;;;;;;3.17;1.80;;;564.10;2022.40;;;;;;4992063;28;20038;-64
2023/08/08 06:50:58;;;;;;;2.00;1.40;;;589.30;1996.80;;;;;;4991887;28;20023;-65
2023/08/08 06:53:24;;;;;;;2.40;1.50;;;589.50;1945.60;;;;;;4992242;28;20473;-64
2023/08/08 06:55:49;;;;;;;2.00;1.40;;;589.50;1945.60;;;;;;4991676;28;20106;-64
2023/08/08 06:58:15;;;;;;;3.08;2.13;;;589.70;1920.00;;;;;;4992095;28;20037;-63
2023/08/08 07:00:41;;;;;;;3.42;1.90;;;615.00;1868.80;;;;;;4991798;28;20069;-64
2023/08/08 07:03:06;;;;;;;3.60;1.73;;;615.10;1894.40;;;;;;4991899;28;20018;-65
2023/08/08 07:05:32;;;;;;;2.28;1.80;;;640.40;1817.60;;;;;;4992084;28;20133;-65
2023/08/08 07:07:58;;;;;;;4.82;1.90;;;666.20;1766.40;;;;;;4991872;28;20049;-66
2023/08/08 07:10:23;;;;;;;2.97;1.85;;;691.40;1715.20;;;;;;4991528;28;20111;-64
2023/08/08 07:12:49;;;;;;;3.78;2.55;;;691.70;1689.60;;;;;;4991624;28;20031;-66
2023/08/08 07:15:15;;;;;;;3.67;3.20;;;794.10;1536.00;;;;;;4988240;28;20084;-66
2023/08/08 07:17:41;;;;;;;4.68;3.65;;;896.30;1356.80;;;;;;4972673;28;20583;-64
2023/08/08 07:20:07;;;;;;;3.83;3.53;;;972.90;1254.40;;;;;;4990645;28;20153;-66
2023/08/08 07:22:33;;;;;;;4.35;3.00;;;998.60;1203.20;;;;;;4990015;28;20041;-65
2023/08/08 07:24:59;;;;;;;4.13;3.60;;;998.50;1177.60;;;;;;4989913;28;20026;-67
2023/08/08 07:27:27;;;;;;;3.85;3.55;;;1024.50;1126.40;;;;;;4990064;28;20056;-65
2023/08/08 07:29:52;;;;;;;4.18;3.78;;;1024.30;1126.40;;;;;;4989548;28;20038;-66
2023/08/08 07:32:18;;;;;;;3.25;2.92;;;1024.20;1100.80;;;;;;4989768;28;20523;-67
2023/08/08 07:34:44;;;;;;;3.88;2.50;;;998.60;1100.80;;;;;;4989858;28;20053;-66
2023/08/08 07:37:10;;;;;;;3.33;2.60;;;896.90;1152.00;;;;;;4990013;28;20476;-65
2023/08/08 07:39:36;;;;;;;4.70;2.30;;;845.30;1280.00;;;;;;4989582;28;20041;-65
2023/08/08 07:42:02;;;;;;;2.72;1.92;;;794.00;1382.40;;;;;;4988745;28;20034;-65
2023/08/08 07:44:28;;;;;;;3.70;2.70;;;768.30;1382.40;;;;;;4989788;28;20018;-67
2023/08/08 07:46:53;;;;;;;2.33;2.00;;;768.80;1356.80;;;;;;4990144;28;20495;-66
2023/08/08 07:49:19;;;;;;;3.35;2.15;;;793.80;1356.80;;;;;;4973433;28;20046;-65
2023/08/08 07:51:45;;;;;;;2.97;2.00;;;793.60;1382.40;;;;;;4991172;28;20073;-65
2023/08/08 07:54:11;;;;;;;3.53;3.22;;;768.10;1408.00;;;;;;4991127;28;20050;-66
2023/08/08 07:56:36;;;;;;;3.95;2.70;;;871.30;1228.80;;;;;;4991218;28;20069;-64
2023/08/08 07:59:03;;;;;;;6.35;2.47;;;870.60;1254.40;;;;;;4990561;28;20026;-66
2023/08/08 08:01:29;;;;;;;3.58;2.67;;;819.30;1331.20;;;;;;4990807;28;20029;-66
2023/08/08 08:03:55;;;;;;;2.75;2.15;;;768.00;1408.00;;;;;;4977452;28;20038;-65
2023/08/08 08:06:21;;;;;;;3.63;2.10;;;742.40;1459.20;;;;;;4990540;28;20015;-66
2023/08/08 08:08:46;;;;;;;6.43;2.20;;;742.40;1484.80;;;;;;4990694;28;20096;-66
2023/08/08 08:11:13;;;;;;;3.42;2.78;;;716.90;1536.00;;;;;;4990224;28;20046;-65
2023/08/08 08:13:39;;;;;;;6.10;3.28;;;743.00;1459.20;;;;;;4990353;28;20540;-67
2023/08/08 08:16:06;;;;;;;3.38;3.00;;;794.50;1356.80;;;;;;4990551;28;20030;-66
2023/08/08 08:18:33;;;;;;;4.18;3.47;;;870.50;1254.40;;;;;;4990383;28;20494;-66
2023/08/08 08:20:59;;;;;;;5.22;3.38;;;870.50;1280.00;;;;;;4990550;28;20045;-66
2023/08/08 08:23:24;;;;;;;4.50;2.60;;;922.00;1203.20;;;;;;4990268;28;20484;-63
2023/08/08 08:25:50;;;;;;;3.75;2.33;;;922.00;1177.60;;;;;;4990365;28;20022;-65
2023/08/08 08:28:16;;;;;;;5.07;4.13;;;845.30;1305.60;;;;;;4990349;28;20038;-63
2023/08/08 08:30:43;;;;;;;14.95;2.97;;;921.80;1203.20;;;;;;4990298;28;20100;-63
2023/08/08 08:33:08;;;;;;;4.20;3.00;;;870.70;1228.80;;;;;;4989830;28;20026;-64
2023/08/08 08:35:37;;;;;;;3.83;2.33;;;819.80;1331.20;;;;;;4990424;28;20029;-62
2023/08/08 08:38:03;;;;;;;5.43;2.67;;;768.40;1408.00;;;;;;4990234;28;20053;-63
2023/08/08 08:40:33;;;;;;;4.90;3.03;;;742.40;1510.40;;;;;;4990016;28;20073;-63
2023/08/08 08:43:00;;;;;;;5.07;2.75;;;691.90;1484.80;;;;;;4989948;28;20034;-62
2023/08/08 08:45:27;;;;;;;3.60;2.53;;;691.70;1484.80;;;;;;4990092;28;20576;-62
2023/08/08 08:47:55;;;;;;;3.28;2.22;;;691.20;1484.80;;;;;;4969118;28;20437;-63
2023/08/08 08:50:22;;;;;;;2.90;2.20;;;666.30;1484.80;;;;;;4980421;28;20022;-63
2023/08/08 08:52:49;;;;;;;3.75;2.25;;;691.20;1536.00;;;;;;4989311;28;20022;-65
2023/08/08 08:55:14;;;;;;;4.18;2.35;;;666.00;1587.20;;;;;;4972212;28;20037;-62
2023/08/08 08:57:41;;;;;;;5.03;2.60;;;640.90;1561.60;;;;;;4990011;28;20018;-65
2023/08/08 09:00:07;;;;;;;4.45;2.22;;;665.90;1612.80;;;;;;4990065;28;20102;-62
2023/08/08 09:02:33;;;;;;;3.25;2.22;;;666.00;1587.20;;;;;;4989718;28;20038;-65
2023/08/08 09:05:02;;;;;;;5.07;2.60;;;665.70;1561.60;;;;;;4989566;28;20065;-63
2023/08/08 09:07:31;;;;;;;5.43;2.17;;;665.90;1664.00;;;;;;4989747;28;20105;-64
2023/08/08 09:09:56;;;;;;;4.05;2.42;;;665.80;1638.40;;;;;;4989511;28;20041;-62
2023/08/08 09:12:24;;;;;;;3.45;2.03;;;665.80;1638.40;;;;;;4989803;28;20030;-62
2023/08/08 09:14:55;;;;;;;4.70;2.35;;;665.80;1638.40;;;;;;4989555;28;20019;-62
2023/08/08 09:17:21;;;;;;;3.92;2.90;;;665.90;1638.40;;;;;;4989349;28;20080;-63
2023/08/08 09:19:47;;;;;;;3.92;2.10;;;665.90;1612.80;;;;;;4989703;28;20106;-62
2023/08/08 09:22:13;;;;;;;4.63;2.50;;;665.90;1612.80;;;;;;4989418;28;20039;-61
2023/08/08 09:24:43;;;;;;;3.03;2.20;;;665.70;1612.80;;;;;;4989714;28;20161;-63
2023/08/08 09:27:09;;;;;;;7.28;2.60;;;640.60;1612.80;;;;;;4989495;28;20370;-62
2023/08/08 09:29:36;;;;;;;3.15;2.15;;;640.10;1612.80;;;;;;4989593;28;20496;-61
2023/08/08 09:32:05;;;;;;;4.90;2.30;;;615.00;1612.80;;;;;;4989465;28;20515;-62
2023/08/08 09:34:31;;;;;;;5.93;2.50;;;615.20;1638.40;;;;;;4989524;28;20034;-63
2023/08/08 09:36:58;;;;;;;5.65;2.38;;;640.00;1664.00;;;;;;4989228;28;20018;-61
2023/08/08 09:39:23;;;;;;;3.50;2.22;;;640.10;1638.40;;;;;;4989607;28;20151;-62
2023/08/08 09:41:50;;;;;;;3.67;2.65;;;640.00;1638.40;;;;;;4989305;28;20473;-63
2023/08/08 09:44:15;;;;;;;5.22;2.83;;;640.40;1612.80;;;;;;4989371;28;20026;-62
2023/08/08 09:46:42;;;;;;;3.70;2.33;;;640.40;1587.20;;;;;;4989150;28;20027;-63
2023/08/08 09:49:11;;;;;;;4.22;2.20;;;640.30;1587.20;;;;;;4989479;28;20421;-62
2023/08/08 09:51:36;;;;;;;3.08;1.98;;;640.70;1587.20;;;;;;4989463;28;20366;-63
2023/08/08 09:54:06;;;;;;;5.18;2.13;;;665.70;1612.80;;;;;;4990045;28;20033;-63
2023/08/08 09:56:33;;;;;;;5.32;2.72;;;665.60;1638.40;;;;;;4976850;28;20018;-63
2023/08/08 09:59:01;;;;;;;2.90;2.17;;;640.50;1638.40;;;;;;4989292;28;20634;-62
2023/08/08 10:01:27;;;;;;;3.67;2.50;;;640.20;1664.00;;;;;;4989456;28;20022;-62
2023/08/08 10:03:53;;;;;;;5.55;2.35;;;615.30;1689.60;;;;;;4990345;28;20073;-63
2023/08/08 10:06:19;;;;;;;4.05;2.45;;;615.30;1689.60;;;;;;4991377;28;20050;-64
2023/08/08 10:08:45;;;;;;;8.75;2.40;;;614.90;1689.60;;;;;;4990566;28;20476;-62
2023/08/08 10:11:12;;;;;;;5.03;2.50;;;614.50;1740.80;;;;;;4991205;28;20053;-62
2023/08/08 10:13:46;;;;;;;4.50;2.38;;;614.70;1740.80;;;;;;4991149;28;20038;-62
2023/08/08 10:16:15;;;;;;;3.90;2.45;;;615.00;1715.20;;;;;;4991794;28;20022;-62
2023/08/08 10:18:40;;;;;;;5.72;2.10;;;615.30;1689.60;;;;;;4991043;28;20030;-63
2023/08/08 10:21:08;;;;;;;5.85;2.47;;;640.50;1715.20;;;;;;4990933;28;20045;-62
2023/08/08 10:23:37;;;;;;;5.50;2.88;;;640.40;1689.60;;;;;;4991199;28;20054;-62
2023/08/08 10:26:03;;;;;;;3.72;2.40;;;640.20;1638.40;;;;;;4991295;28;20030;-63
2023/08/08 10:28:32;;;;;;;8.45;2.60;;;640.50;1638.40;;;;;;4990556;28;20511;-62
2023/08/08 10:31:01;;;;;;;3.13;2.10;;;665.60;1689.60;;;;;;4990967;28;20164;-63
2023/08/08 10:33:41;;;;;;;3.08;2.30;;;665.70;1766.40;;;;;;4990207;28;20027;-65
2023/08/08 10:36:07;;;;;;;3.72;2.05;;;666.00;1715.20;;;;;;4991162;28;20026;-62
2023/08/08 10:38:49;;;;;;;3.10;2.20;;;666.00;1689.60;;;;;;4990888;28;20027;-63
2023/08/08 10:41:17;;;;;;;4.88;2.40;;;666.00;1664.00;;;;;;4991166;28;20038;-63
2023/08/08 10:43:57;;;;;;;2.55;1.73;;;665.90;1587.20;;;;;;4990744;28;20049;-64
2023/08/08 10:46:25;;;;;;;2.85;1.85;;;665.70;1612.80;;;;;;4990328;28;20431;-62
2023/08/08 10:49:02;;;;;;;3.30;2.25;;;665.80;1612.80;;;;;;4990492;28;20074;-64
2023/08/08 10:51:47;;;;;;;5.13;2.05;;;640.90;1612.80;;;;;;4990575;28;20018;-62
2023/08/08 10:54:15;;;;;;;3.03;2.17;;;640.60;1638.40;;;;;;4990512;28;20018;-63
2023/08/08 10:56:47;;;;;;;4.70;1.90;;;615.20;1638.40;;;;;;4990742;28;20022;-64
2023/08/08 10:59:18;;;;;;;2.65;1.65;;;614.80;1689.60;;;;;;4990151;28;20085;-63
2023/08/08 11:01:46;;;;;;;3.47;2.30;;;614.60;1715.20;;;;;;4990458;28;20034;-62
2023/08/08 11:04:12;;;;;;;4.75;2.35;;;614.50;1740.80;;;;;;4990477;28;20381;-62
2023/08/08 11:06:39;;;;;;;3.00;2.15;;;614.60;1766.40;;;;;;4973010;28;20030;-63
2023/08/08 11:09:08;;;;;;;3.72;2.17;;;614.50;1715.20;;;;;;4990235;28;20041;-62
2023/08/08 11:11:41;;;;;;;3.03;2.05;;;614.70;1740.80;;;;;;4990485;28;20046;-63
2023/08/08 11:14:12;;;;;;;3.30;2.28;;;614.90;1740.80;;;;;;4989672;28;20027;-63
2023/08/08 11:16:38;;;;;;;3.08;2.10;;;615.30;1715.20;;;;;;4989256;28;20081;-63
2023/08/08 11:19:04;;;;;;;3.97;2.40;;;640.10;1689.60;;;;;;4990321;28;20034;-63
2023/08/08 11:21:32;;;;;;;10.23;2.15;;;640.30;1689.60;;;;;;4990061;28;20110;-63
2023/08/08 11:23:58;;;;;;;3.20;2.20;;;640.50;1715.20;;;;;;4989906;28;20062;-63
2023/08/08 11:26:24;;;;;;;5.32;2.50;;;640.50;1689.60;;;;;;4989785;28;20053;-63
2023/08/08 11:28:53;;;;;;;4.22;2.35;;;640.40;1664.00;;;;;;4989757;28;20042;-63
2023/08/08 11:31:21;;;;;;;3.78;2.33;;;640.20;1664.00;;;;;;4989591;28;20034;-64
2023/08/08 11:33:48;;;;;;;3.78;2.65;;;640.60;1638.40;;;;;;4977296;28;20022;-64
2023/08/08 11:36:17;;;;;;;3.25;2.20;;;640.40;1612.80;;;;;;4989821;28;20026;-63
2023/08/08 11:38:43;;;;;;;16.00;3.08;;;640.40;1612.80;;;;;;4989223;28;20530;-62
2023/08/08 11:41:13;;;;;;;4.53;2.50;;;640.70;1587.20;;;;;;4989514;28;20481;-63
2023/08/08 11:43:40;;;;;;;3.70;2.08;;;666.50;1587.20;;;;;;4989610;28;20033;-64
2023/08/08 11:46:13;;;;;;;4.05;2.33;;;666.40;1689.60;;;;;;4989533;28;20061;-65
2023/08/08 11:48:39;;;;;;;2.55;1.98;;;691.20;1612.80;;;;;;4989686;28;20562;-65
2023/08/08 11:51:06;;;;;;;2.92;2.08;;;691.20;1612.80;;;;;;4989637;28;20109;-64
2023/08/08 11:53:33;;;;;;;2.70;1.88;;;691.20;1664.00;;;;;;4971232;28;20038;-64
2023/08/08 11:56:00;;;;;;;2.83;1.70;;;691.20;1664.00;;;;;;4989207;28;20377;-63
2023/08/08 11:58:26;;;;;;;4.60;2.22;;;666.10;1664.00;;;;;;4989469;28;20022;-67
2023/08/08 12:00:54;;;;;;;3.40;1.95;;;665.90;1638.40;;;;;;4989571;28;20384;-65
2023/08/08 12:03:20;;;;;;;3.08;1.85;;;665.60;1664.00;;;;;;4989397;28;20041;-64
2023/08/08 12:05:47;;;;;;;3.78;1.85;;;640.70;1664.00;;;;;;4988891;28;20028;-65
2023/08/08 12:08:13;;;;;;;3.00;2.13;;;640.40;1689.60;;;;;;4988994;28;20046;-65
2023/08/08 12:10:39;;;;;;;4.18;2.33;;;640.00;1715.20;;;;;;4971076;28;20046;-64
2023/08/08 12:13:07;;;;;;;4.22;1.85;;;615.00;1740.80;;;;;;4989190;28;20019;-65
2023/08/08 12:15:35;;;;;;;3.33;2.00;;;614.80;1766.40;;;;;;4988702;28;20141;-63